createdAt,value
2023-02-13T00:00:53.226Z,5.50
2023-02-13T00:03:21.038Z,5.60
2023-02-13T00:05:48.747Z,5.60
2023-02-13T00:08:16.544Z,5.70
2023-02-13T00:10:44.213Z,5.80
2023-02-13T00:13:11.926Z,5.80
2023-02-13T00:15:39.686Z,5.80
2023-02-13T00:18:07.392Z,5.80
2023-02-13T00:20:35.062Z,5.80
2023-02-13T00:23:02.928Z,5.80
2023-02-13T00:25:30.602Z,5.70
2023-02-13T00:27:58.331Z,5.80
2023-02-13T00:30:25.979Z,5.80
2023-02-13T00:32:53.793Z,5.80
2023-02-13T00:35:22.161Z,5.80
2023-02-13T00:37:49.845Z,5.80
2023-02-13T00:40:17.490Z,5.70
2023-02-13T00:42:45.249Z,5.70
2023-02-13T00:45:14.352Z,5.70
2023-02-13T00:47:42.043Z,5.80
2023-02-13T00:50:10.158Z,5.80
2023-02-13T00:52:37.896Z,5.80
2023-02-13T00:55:06.089Z,5.90
2023-02-13T00:57:33.794Z,6.00
2023-02-13T01:00:01.506Z,5.90
2023-02-13T01:02:29.346Z,6.00
2023-02-13T01:04:57.045Z,6.10
2023-02-13T01:07:25.464Z,6.00
2023-02-13T01:09:53.086Z,6.00
2023-02-13T01:12:20.837Z,6.00
2023-02-13T01:14:48.598Z,5.90
2023-02-13T01:17:18.548Z,6.00
2023-02-13T01:19:46.197Z,6.00
2023-02-13T01:22:13.926Z,6.00
2023-02-13T01:24:41.685Z,6.00
2023-02-13T01:27:09.380Z,6.00
2023-02-13T01:29:37.379Z,6.10
2023-02-13T01:32:05.828Z,6.10
2023-02-13T01:34:34.626Z,6.10
2023-02-13T01:37:02.316Z,6.10
2023-02-13T01:39:29.993Z,6.20
2023-02-13T01:41:57.864Z,6.10
2023-02-13T01:44:48.764Z,6.20
2023-02-13T01:47:48.881Z,6.20
2023-02-13T01:50:24.743Z,6.20
2023-02-13T01:53:00.414Z,6.20
2023-02-13T01:55:29.380Z,6.20
2023-02-13T01:58:07.352Z,6.10
2023-02-13T02:00:37.132Z,6.10
2023-02-13T02:03:14.418Z,6.00
2023-02-13T02:05:43.361Z,6.00
2023-02-13T02:08:14.180Z,6.00
2023-02-13T02:10:42.157Z,6.00
2023-02-13T02:13:21.586Z,6.00
2023-02-13T02:15:53.195Z,6.00
2023-02-13T02:18:23.696Z,6.00
2023-02-13T02:21:15.911Z,6.00
2023-02-13T02:23:52.257Z,6.00
2023-02-13T02:26:41.123Z,6.00
2023-02-13T02:29:27.425Z,5.90
2023-02-13T02:32:23.218Z,5.90
2023-02-13T02:35:06.214Z,5.90
2023-02-13T02:37:55.217Z,5.90
2023-02-13T02:40:37.392Z,5.90
2023-02-13T02:43:14.568Z,5.90
2023-02-13T02:46:11.069Z,5.80
2023-02-13T02:49:23.315Z,5.70
2023-02-13T02:52:20.437Z,5.70
2023-02-13T02:55:08.307Z,5.60
2023-02-13T02:58:07.875Z,5.40
2023-02-13T03:00:59.693Z,5.40
2023-02-13T03:03:48.528Z,5.40
2023-02-13T03:06:25.816Z,5.30
2023-02-13T03:09:18.984Z,5.30
2023-02-13T03:12:09.709Z,5.30
2023-02-13T03:14:38.030Z,5.30
2023-02-13T03:17:28.280Z,5.30
2023-02-13T03:20:20.511Z,5.30
2023-02-13T03:23:10.119Z,5.30
2023-02-13T03:26:06.374Z,5.30
2023-02-13T03:29:10.974Z,5.20
2023-02-13T03:31:47.876Z,5.10
2023-02-13T03:34:20.695Z,5.10
2023-02-13T03:37:14.355Z,5.00
2023-02-13T03:40:05.843Z,4.90
2023-02-13T03:42:44.764Z,4.90
2023-02-13T03:45:37.933Z,4.90
2023-02-13T03:48:10.190Z,4.90
2023-02-13T03:50:43.137Z,5.00
2023-02-13T03:53:14.240Z,4.90
2023-02-13T03:56:04.671Z,4.90
2023-02-13T03:59:04.189Z,4.90
2023-02-13T04:01:35.046Z,4.80
2023-02-13T04:04:12.380Z,4.80
2023-02-13T04:07:07.646Z,4.60
2023-02-13T04:09:39.003Z,4.70
2023-02-13T04:12:06.780Z,4.70
2023-02-13T04:14:40.490Z,4.70
2023-02-13T04:17:37.273Z,4.60
2023-02-13T04:20:06.808Z,4.60
2023-02-13T04:22:34.507Z,4.60
2023-02-13T04:25:02.315Z,4.60
2023-02-13T04:27:30.111Z,4.50
2023-02-13T04:29:57.804Z,4.30
2023-02-13T04:32:25.585Z,4.40
2023-02-13T04:34:53.312Z,4.40
2023-02-13T04:37:21.025Z,4.20
2023-02-13T04:39:48.730Z,3.90
2023-02-13T04:42:16.502Z,3.70
2023-02-13T04:44:44.232Z,3.70
2023-02-13T04:47:12.128Z,3.80
2023-02-13T04:49:39.918Z,3.70
2023-02-13T04:52:07.600Z,3.60
2023-02-13T04:54:35.258Z,3.50
2023-02-13T04:57:03.031Z,3.40
2023-02-13T04:59:30.844Z,3.50
2023-02-13T05:01:59.490Z,3.50
2023-02-13T05:04:27.375Z,3.60
2023-02-13T05:06:55.418Z,3.60
2023-02-13T05:09:23.237Z,3.40
2023-02-13T05:11:54.584Z,3.30
2023-02-13T05:14:22.725Z,3.20
2023-02-13T05:16:50.394Z,3.40
2023-02-13T05:19:19.252Z,3.40
2023-02-13T05:22:05.211Z,3.30
2023-02-13T05:24:32.990Z,3.40
2023-02-13T05:27:00.789Z,3.40
2023-02-13T05:29:28.681Z,3.40
2023-02-13T05:31:58.458Z,3.40
2023-02-13T05:34:27.846Z,3.30
2023-02-13T05:36:56.210Z,3.20
2023-02-13T05:39:23.980Z,3.20
2023-02-13T05:41:51.781Z,3.20
2023-02-13T05:44:19.523Z,3.10
2023-02-13T05:46:47.247Z,3.30
2023-02-13T05:49:15.885Z,3.30
2023-02-13T05:51:43.955Z,3.30
2023-02-13T05:54:11.676Z,3.10
2023-02-13T05:56:39.388Z,3.20
2023-02-13T05:59:08.179Z,3.10
2023-02-13T06:01:35.877Z,3.30
2023-02-13T06:04:04.142Z,3.40
2023-02-13T06:06:32.049Z,3.40
2023-02-13T06:08:59.909Z,3.40
2023-02-13T06:11:27.678Z,3.40
2023-02-13T06:13:55.489Z,3.50
2023-02-13T06:16:23.387Z,3.50
2023-02-13T06:18:51.358Z,3.10
2023-02-13T06:21:19.174Z,3.00
2023-02-13T06:23:47.657Z,3.10
2023-02-13T06:26:15.604Z,3.30
2023-02-13T06:28:43.321Z,3.40
2023-02-13T06:31:11.604Z,3.20
2023-02-13T06:33:39.413Z,3.30
2023-02-13T06:36:07.681Z,3.20
2023-02-13T06:38:35.361Z,3.00
2023-02-13T06:41:03.261Z,3.00
2023-02-13T06:43:31.239Z,3.30
2023-02-13T06:45:59.190Z,3.30
2023-02-13T06:48:26.962Z,3.30
2023-02-13T06:50:54.995Z,3.60
2023-02-13T06:53:25.080Z,3.50
2023-02-13T06:55:53.844Z,3.50
2023-02-13T06:58:22.650Z,3.80
2023-02-13T07:00:51.612Z,3.70
2023-02-13T07:03:19.725Z,3.60
2023-02-13T07:05:47.595Z,3.60
2023-02-13T07:08:15.310Z,3.60
2023-02-13T07:10:43.345Z,3.60
2023-02-13T07:13:11.425Z,3.70
2023-02-13T07:15:39.284Z,3.70
2023-02-13T07:18:07.507Z,3.70
2023-02-13T07:20:35.288Z,3.70
2023-02-13T07:23:05.105Z,3.80
2023-02-13T07:25:33.523Z,3.90
2023-02-13T07:28:06.091Z,4.10
2023-02-13T07:30:34.968Z,4.20
2023-02-13T07:33:04.077Z,4.10
2023-02-13T07:35:32.502Z,4.10
2023-02-13T07:38:00.905Z,4.10
2023-02-13T07:40:28.759Z,4.40
2023-02-13T07:42:56.916Z,4.60
2023-02-13T07:45:24.667Z,4.70
2023-02-13T07:47:54.830Z,4.50
2023-02-13T07:50:22.761Z,4.40
2023-02-13T07:52:58.437Z,4.50
2023-02-13T07:55:27.470Z,4.50
2023-02-13T07:57:56.377Z,4.60
2023-02-13T08:00:24.291Z,4.60
2023-02-13T08:02:52.333Z,4.70
2023-02-13T08:05:20.234Z,4.70
2023-02-13T08:07:47.849Z,4.90
2023-02-13T08:10:34.047Z,4.90
2023-02-13T08:13:02.053Z,4.90
2023-02-13T08:15:29.810Z,4.90
2023-02-13T08:17:57.422Z,5.00
2023-02-13T08:20:25.386Z,5.10
2023-02-13T08:22:53.130Z,5.20
2023-02-13T08:25:21.083Z,5.20
2023-02-13T08:27:48.855Z,5.30
2023-02-13T08:30:16.717Z,5.40
2023-02-13T08:32:53.842Z,5.50
2023-02-13T08:35:26.807Z,5.50
2023-02-13T08:37:54.667Z,5.60
2023-02-13T08:40:24.499Z,5.70
2023-02-13T08:42:53.544Z,5.90
2023-02-13T08:45:21.417Z,6.00
2023-02-13T08:47:49.165Z,6.10
2023-02-13T08:50:17.230Z,6.20
2023-02-13T08:52:45.203Z,6.40
2023-02-13T08:55:13.133Z,6.60
2023-02-13T08:57:41.057Z,7.00
2023-02-13T09:00:09.428Z,7.10
2023-02-13T09:02:37.511Z,7.00
2023-02-13T09:05:05.724Z,7.20
2023-02-13T09:07:33.675Z,7.40
2023-02-13T09:10:01.666Z,7.50
2023-02-13T09:12:29.585Z,7.60
2023-02-13T09:14:57.546Z,7.60
2023-02-13T09:17:25.604Z,7.60
2023-02-13T09:19:53.943Z,7.70
2023-02-13T09:22:21.923Z,7.80
2023-02-13T09:24:49.786Z,7.80
2023-02-13T09:27:17.641Z,7.90
2023-02-13T09:29:45.666Z,7.90
2023-02-13T09:32:13.739Z,8.10
2023-02-13T09:34:41.634Z,8.20
2023-02-13T09:37:09.620Z,8.20
2023-02-13T09:39:37.621Z,8.30
2023-02-13T09:42:29.144Z,8.50
2023-02-13T09:45:00.822Z,8.60
2023-02-13T09:47:41.508Z,8.80
2023-02-13T09:50:22.466Z,8.90
2023-02-13T09:52:53.736Z,9.00
2023-02-13T09:55:42.333Z,9.00
2023-02-13T09:58:20.830Z,9.20
2023-02-13T10:00:53.415Z,9.40
2023-02-13T10:03:32.780Z,9.40
2023-02-13T10:06:08.222Z,9.50
2023-02-13T10:08:38.938Z,9.70
2023-02-13T10:11:21.895Z,9.80
2023-02-13T10:14:14.711Z,9.80
2023-02-13T10:16:57.585Z,9.80
2023-02-13T10:19:46.020Z,9.90
2023-02-13T10:22:25.893Z,10.10
2023-02-13T10:25:06.513Z,10.20
2023-02-13T10:28:03.119Z,10.20
2023-02-13T10:30:36.962Z,10.40
2023-02-13T10:33:22.009Z,10.50
2023-02-13T10:36:16.127Z,10.60
2023-02-13T10:39:09.789Z,10.80
2023-02-13T10:42:05.995Z,10.90
2023-02-13T10:45:00.411Z,11.00
2023-02-13T10:47:31.607Z,11.10
2023-02-13T10:50:38.101Z,11.20
2023-02-13T10:53:06.162Z,11.30
2023-02-13T10:55:59.128Z,11.30
2023-02-13T10:59:14.719Z,11.50
2023-02-13T11:01:47.873Z,11.60
2023-02-13T11:04:19.088Z,11.50
2023-02-13T11:06:57.867Z,11.60
2023-02-13T11:09:26.633Z,11.70
2023-02-13T11:11:54.895Z,11.70
2023-02-13T11:14:27.607Z,11.80
2023-02-13T11:17:02.257Z,11.70
2023-02-13T11:19:37.878Z,12.00
2023-02-13T11:22:12.021Z,12.20
2023-02-13T11:24:54.001Z,12.30
2023-02-13T11:27:28.017Z,12.30
2023-02-13T11:30:02.331Z,12.30
2023-02-13T11:32:32.264Z,12.40
2023-02-13T11:35:27.804Z,12.50
2023-02-13T11:38:12.221Z,12.60
2023-02-13T11:40:42.172Z,12.80
2023-02-13T11:43:39.061Z,13.00
2023-02-13T11:46:12.804Z,13.00
2023-02-13T11:48:41.532Z,13.00
2023-02-13T11:51:09.526Z,13.00
2023-02-13T11:53:39.673Z,13.10
2023-02-13T11:56:12.153Z,13.30
2023-02-13T11:58:41.097Z,13.30
2023-02-13T12:01:22.370Z,13.40
2023-02-13T12:04:17.676Z,13.50
2023-02-13T12:06:58.904Z,13.40
2023-02-13T12:09:32.020Z,13.20
2023-02-13T12:12:08.027Z,13.40
2023-02-13T12:14:45.112Z,13.70
2023-02-13T12:17:31.879Z,13.70
2023-02-13T12:20:00.878Z,13.90
2023-02-13T12:22:59.875Z,14.00
2023-02-13T12:25:50.466Z,14.10
2023-02-13T12:28:34.200Z,13.90
2023-02-13T12:31:44.051Z,14.00
2023-02-13T12:34:53.925Z,13.50
2023-02-13T12:37:37.497Z,13.80
2023-02-13T12:40:30.058Z,14.00
2023-02-13T12:43:35.381Z,14.20
2023-02-13T12:46:09.640Z,14.20
2023-02-13T12:49:09.417Z,14.30
2023-02-13T12:52:13.987Z,14.50
2023-02-13T12:55:00.563Z,14.50
2023-02-13T12:57:37.124Z,14.50
2023-02-13T13:00:21.064Z,14.60
2023-02-13T13:03:22.448Z,14.60
2023-02-13T13:06:10.915Z,14.50
2023-02-13T13:09:06.368Z,14.70
2023-02-13T13:11:43.248Z,14.70
2023-02-13T13:14:16.587Z,14.70
2023-02-13T13:17:11.582Z,14.60
2023-02-13T13:20:06.682Z,14.60
2023-02-13T13:22:53.830Z,14.30
2023-02-13T13:25:51.523Z,14.60
2023-02-13T13:28:25.143Z,14.70
2023-02-13T13:30:54.680Z,14.70
2023-02-13T13:33:25.913Z,14.70
2023-02-13T13:36:06.344Z,14.70
2023-02-13T13:38:46.141Z,14.60
2023-02-13T13:41:31.860Z,14.70
2023-02-13T13:44:18.610Z,14.70
2023-02-13T13:47:16.900Z,14.50
2023-02-13T13:49:54.844Z,14.60
2023-02-13T13:52:39.454Z,14.60
2023-02-13T13:55:27.037Z,14.50
2023-02-13T13:57:57.746Z,14.40
2023-02-13T14:00:30.398Z,14.10
2023-02-13T14:03:35.633Z,14.00
2023-02-13T14:06:07.079Z,14.20
2023-02-13T14:08:57.275Z,14.00
2023-02-13T14:11:34.717Z,14.00
2023-02-13T14:14:23.056Z,14.10
2023-02-13T14:16:50.930Z,14.20
2023-02-13T14:19:36.081Z,14.10
2023-02-13T14:22:28.157Z,13.90
2023-02-13T14:25:01.525Z,13.90
2023-02-13T14:27:32.342Z,13.80
2023-02-13T14:30:01.468Z,13.50
2023-02-13T14:32:41.322Z,13.30
2023-02-13T14:35:25.652Z,13.30
2023-02-13T14:37:59.661Z,13.40
2023-02-13T14:40:30.227Z,13.30
2023-02-13T14:43:25.829Z,13.50
2023-02-13T14:46:21.025Z,13.50
2023-02-13T14:49:02.764Z,13.30
2023-02-13T14:51:45.251Z,13.10
2023-02-13T14:54:22.183Z,13.00
2023-02-13T14:56:52.229Z,13.10
2023-02-13T14:59:37.014Z,13.20
2023-02-13T15:02:25.193Z,13.20
2023-02-13T15:05:04.922Z,13.30
2023-02-13T15:07:36.936Z,13.20
2023-02-13T15:10:18.043Z,13.10
2023-02-13T15:12:46.171Z,12.90
2023-02-13T15:15:26.552Z,13.00
2023-02-13T15:18:00.790Z,13.10
2023-02-13T15:20:33.375Z,12.90
2023-02-13T15:23:01.956Z,13.00
2023-02-13T15:25:33.296Z,13.10
2023-02-13T15:28:03.109Z,13.10
2023-02-13T15:30:38.321Z,12.90
2023-02-13T15:33:19.055Z,12.80
2023-02-13T15:35:47.717Z,12.80
2023-02-13T15:38:39.664Z,12.70
2023-02-13T15:41:31.209Z,12.80
2023-02-13T15:44:00.379Z,12.70
2023-02-13T15:46:37.310Z,12.80
2023-02-13T15:49:26.624Z,12.80
2023-02-13T15:52:22.037Z,12.60
2023-02-13T15:54:52.848Z,12.70
2023-02-13T15:57:22.191Z,12.70
2023-02-13T15:59:50.914Z,12.70
2023-02-13T16:02:30.610Z,12.60
2023-02-13T16:05:01.700Z,12.60
2023-02-13T16:07:30.931Z,12.60
2023-02-13T16:10:34.211Z,12.60
2023-02-13T16:13:05.745Z,12.40
2023-02-13T16:15:36.718Z,12.30
2023-02-13T16:18:06.400Z,12.30
2023-02-13T16:20:35.139Z,12.10
2023-02-13T16:23:16.115Z,12.00
2023-02-13T16:25:44.309Z,12.10
2023-02-13T16:28:17.795Z,12.00
2023-02-13T16:30:51.407Z,11.80
2023-02-13T16:33:21.607Z,11.90
2023-02-13T16:36:18.388Z,11.80
2023-02-13T16:38:48.781Z,11.80
2023-02-13T16:41:19.774Z,11.60
2023-02-13T16:44:21.335Z,11.40
2023-02-13T16:46:53.725Z,11.20
2023-02-13T16:49:24.243Z,11.00
2023-02-13T16:51:58.859Z,11.00
2023-02-13T16:54:48.710Z,10.80
2023-02-13T16:57:19.139Z,10.70
2023-02-13T17:00:01.554Z,10.70
2023-02-13T17:02:41.090Z,10.60
2023-02-13T17:05:09.011Z,10.50
2023-02-13T17:07:36.750Z,10.40
2023-02-13T17:10:13.571Z,10.30
2023-02-13T17:12:41.314Z,10.30
2023-02-13T17:15:13.583Z,10.30
2023-02-13T17:17:41.444Z,10.20
2023-02-13T17:20:17.295Z,10.20
2023-02-13T17:22:48.046Z,10.30
2023-02-13T17:25:29.465Z,10.30
2023-02-13T17:28:07.108Z,10.20
2023-02-13T17:30:35.102Z,10.10
2023-02-13T17:33:29.218Z,9.90
2023-02-13T17:35:57.237Z,9.90
2023-02-13T17:38:24.931Z,9.90
2023-02-13T17:40:52.688Z,9.90
2023-02-13T17:43:21.040Z,9.90
2023-02-13T17:45:49.932Z,9.80
2023-02-13T17:48:18.189Z,9.80
2023-02-13T17:50:46.404Z,9.70
2023-02-13T17:53:23.322Z,9.70
2023-02-13T17:55:51.178Z,9.70
2023-02-13T17:58:19.080Z,9.60
2023-02-13T18:00:46.997Z,9.60
2023-02-13T18:03:14.811Z,9.50
2023-02-13T18:05:42.587Z,9.40
2023-02-13T18:08:10.400Z,9.40
2023-02-13T18:10:39.616Z,9.40
2023-02-13T18:13:07.895Z,9.30
2023-02-13T18:15:41.098Z,9.30
2023-02-13T18:18:10.289Z,9.20
2023-02-13T18:20:38.014Z,9.20
2023-02-13T18:23:07.234Z,9.10
2023-02-13T18:25:35.650Z,9.00
2023-02-13T18:28:03.383Z,9.10
2023-02-13T18:30:31.302Z,9.20
2023-02-13T18:33:05.165Z,9.20
2023-02-13T18:35:36.214Z,9.10
2023-02-13T18:38:04.233Z,9.00
2023-02-13T18:40:31.972Z,9.00
2023-02-13T18:43:00.633Z,8.90
2023-02-13T18:45:28.410Z,8.90
2023-02-13T18:47:56.217Z,8.80
2023-02-13T18:50:24.038Z,8.60
2023-02-13T18:52:51.643Z,8.50
2023-02-13T18:55:19.323Z,8.50
2023-02-13T18:57:48.175Z,8.50
2023-02-13T19:00:17.408Z,8.30
2023-02-13T19:02:45.278Z,8.30
2023-02-13T19:05:13.011Z,8.40
2023-02-13T19:07:40.980Z,8.40
2023-02-13T19:10:09.103Z,8.30
2023-02-13T19:12:37.152Z,8.20
2023-02-13T19:15:05.286Z,8.10
2023-02-13T19:17:35.084Z,7.80
2023-02-13T19:20:02.932Z,8.10
2023-02-13T19:22:30.623Z,8.20
2023-02-13T19:24:58.430Z,8.10
2023-02-13T19:27:26.117Z,8.00
2023-02-13T19:29:53.879Z,7.80
2023-02-13T19:32:21.815Z,7.80
2023-02-13T19:34:49.699Z,7.90
2023-02-13T19:37:17.444Z,8.00
2023-02-13T19:39:45.252Z,7.90
2023-02-13T19:42:12.952Z,7.70
2023-02-13T19:44:40.671Z,7.50
2023-02-13T19:47:08.409Z,7.50
2023-02-13T19:49:36.330Z,7.60
2023-02-13T19:52:04.089Z,7.50
2023-02-13T19:54:32.218Z,7.40
2023-02-13T19:57:05.370Z,7.30
2023-02-13T19:59:33.073Z,7.30
2023-02-13T20:02:00.846Z,7.40
2023-02-13T20:04:28.676Z,7.60
2023-02-13T20:06:58.488Z,7.40
2023-02-13T20:09:26.374Z,7.30
2023-02-13T20:11:54.249Z,7.30
2023-02-13T20:14:22.193Z,7.20
2023-02-13T20:16:49.984Z,7.20
2023-02-13T20:19:17.750Z,7.20
2023-02-13T20:21:46.089Z,7.10
2023-02-13T20:24:13.908Z,7.20
2023-02-13T20:26:41.849Z,7.00
2023-02-13T20:29:09.788Z,6.80
2023-02-13T20:31:41.499Z,6.80
2023-02-13T20:34:10.227Z,6.70
2023-02-13T20:36:37.982Z,6.80
2023-02-13T20:39:07.413Z,6.80
2023-02-13T20:41:37.726Z,6.80
2023-02-13T20:44:11.354Z,6.70
2023-02-13T20:46:40.044Z,6.60
2023-02-13T20:49:08.550Z,6.70
2023-02-13T20:51:36.457Z,6.70
2023-02-13T20:54:05.445Z,6.70
2023-02-13T20:56:33.310Z,6.60
2023-02-13T20:59:02.673Z,6.60
2023-02-13T21:01:36.824Z,6.70
2023-02-13T21:04:04.694Z,6.70
2023-02-13T21:06:37.318Z,6.70
2023-02-13T21:09:07.992Z,6.70
2023-02-13T21:11:37.682Z,6.90
2023-02-13T21:14:05.961Z,6.90
2023-02-13T21:16:37.075Z,7.00
2023-02-13T21:19:07.975Z,6.80
2023-02-13T21:21:37.395Z,6.70
2023-02-13T21:24:11.228Z,6.80
2023-02-13T21:26:39.906Z,6.80
2023-02-13T21:29:07.937Z,6.70
2023-02-13T21:31:47.715Z,6.60
2023-02-13T21:34:17.725Z,6.80
2023-02-13T21:36:45.627Z,6.70
2023-02-13T21:39:13.862Z,6.50
2023-02-13T21:41:43.180Z,6.50
2023-02-13T21:44:14.750Z,6.40
2023-02-13T21:46:44.620Z,6.40
2023-02-13T21:49:15.266Z,6.30
2023-02-13T21:51:43.106Z,6.40
2023-02-13T21:54:11.745Z,6.40
2023-02-13T21:56:42.885Z,6.40
2023-02-13T21:59:16.161Z,6.40
2023-02-13T22:01:54.910Z,6.40
2023-02-13T22:04:22.922Z,6.40
2023-02-13T22:06:52.953Z,6.40
2023-02-13T22:09:21.831Z,6.40
2023-02-13T22:11:51.857Z,6.30
2023-02-13T22:14:20.108Z,6.30
2023-02-13T22:16:50.943Z,6.30
2023-02-13T22:19:19.344Z,6.30
2023-02-13T22:21:47.397Z,6.30
2023-02-13T22:24:15.537Z,6.30
2023-02-13T22:26:45.854Z,6.30
2023-02-13T22:29:18.170Z,6.30
2023-02-13T22:31:47.065Z,6.30
2023-02-13T22:34:15.366Z,6.30
2023-02-13T22:36:46.208Z,6.30
2023-02-13T22:39:15.091Z,6.40
2023-02-13T22:41:45.947Z,6.30
2023-02-13T22:44:14.051Z,6.20
2023-02-13T22:46:41.762Z,6.20
2023-02-13T22:49:09.534Z,6.20
2023-02-13T22:51:37.572Z,6.40
2023-02-13T22:54:06.473Z,6.30
2023-02-13T22:56:35.338Z,6.10
2023-02-13T22:59:03.299Z,6.00
2023-02-13T23:01:31.078Z,5.90
2023-02-13T23:03:59.311Z,6.00
2023-02-13T23:06:27.207Z,6.10
2023-02-13T23:08:56.541Z,6.10
2023-02-13T23:11:45.729Z,6.30
2023-02-13T23:14:14.341Z,6.30
2023-02-13T23:17:02.005Z,6.20
2023-02-13T23:19:30.234Z,6.10
2023-02-13T23:21:59.121Z,6.20
2023-02-13T23:24:28.844Z,6.10
2023-02-13T23:26:56.683Z,6.00
2023-02-13T23:29:24.864Z,6.00
2023-02-13T23:31:53.294Z,6.10
2023-02-13T23:34:21.428Z,6.20
2023-02-13T23:36:49.124Z,6.10
2023-02-13T23:39:16.871Z,6.10
2023-02-13T23:41:44.658Z,6.00
2023-02-13T23:44:12.506Z,5.90
2023-02-13T23:46:40.155Z,5.90
2023-02-13T23:49:07.910Z,5.80
2023-02-13T23:51:35.632Z,5.80
2023-02-13T23:54:03.371Z,5.60
2023-02-13T23:56:31.237Z,5.60
2023-02-13T23:58:59.072Z,5.60
